Time;durP1;ratioP1;P1;durP2;ratioP2;P2;SDS_P1;SDS_P2;PMS_P1;PMS_P2;Temp;Humidity;BMP_temperature;BMP_pressure;BME280_temperature;BME280_humidity;BME280_pressure;Samples;Min_cycle;Max_cycle;Signal;HPM_P1;HPM_P2
2021/12/27 00:00:34;;;;;;;19.73;13.23;;;0.90;75.20;;;;;;6068121;23;94049;-69
2021/12/27 00:03:02;;;;;;;19.65;13.18;;;0.90;75.00;;;;;;6094147;23;92973;-73
2021/12/27 00:05:30;;;;;;;19.27;13.73;;;0.90;74.80;;;;;;6117812;23;92417;-72
2021/12/27 00:07:58;;;;;;;19.77;12.30;;;0.90;75.30;;;;;;6093901;23;103735;-72
2021/12/27 00:10:27;;;;;;;18.67;12.93;;;0.90;75.10;;;;;;6117521;23;93004;-72
2021/12/27 00:12:55;;;;;;;22.40;14.05;;;0.90;75.10;;;;;;6094826;23;92899;-73
2021/12/27 00:15:23;;;;;;;20.42;13.40;;;0.90;74.80;;;;;;6095331;23;91561;-73
2021/12/27 00:17:50;;;;;;;17.95;12.57;;;0.80;74.90;;;;;;6094708;23;92385;-73
2021/12/27 00:20:19;;;;;;;20.80;12.90;;;0.70;75.00;;;;;;6092569;23;95635;-72
2021/12/27 00:22:47;;;;;;;18.27;12.90;;;0.70;75.60;;;;;;6090889;23;94786;-72
2021/12/27 00:25:16;;;;;;;17.63;12.38;;;0.60;75.70;;;;;;6094415;23;92282;-72
2021/12/27 00:27:43;;;;;;;20.63;13.02;;;0.60;75.90;;;;;;6094436;23;92435;-72
2021/12/27 00:30:11;;;;;;;18.15;13.38;;;0.60;76.10;;;;;;6094679;23;93049;-72
2021/12/27 00:32:39;;;;;;;19.55;13.27;;;0.60;76.10;;;;;;6095026;23;92854;-73
2021/12/27 00:35:08;;;;;;;19.75;13.48;;;0.60;76.00;;;;;;6094788;23;92387;-72
2021/12/27 00:37:35;;;;;;;20.02;13.88;;;0.60;76.30;;;;;;6117967;23;92426;-72
2021/12/27 00:40:05;;;;;;;21.38;14.73;;;0.60;75.90;;;;;;6094970;23;92201;-72
2021/12/27 00:42:32;;;;;;;21.30;13.23;;;0.70;75.80;;;;;;6068165;23;92543;-72
2021/12/27 00:44:59;;;;;;;19.08;13.48;;;0.70;75.80;;;;;;6094969;23;92379;-73
2021/12/27 00:47:26;;;;;;;20.20;12.30;;;0.70;75.90;;;;;;6091778;23;94792;-72
2021/12/27 00:49:53;;;;;;;20.35;14.45;;;0.70;76.50;;;;;;6117833;23;93037;-73
2021/12/27 00:52:20;;;;;;;18.92;13.38;;;0.70;76.70;;;;;;6094378;23;92941;-72
2021/12/27 00:54:47;;;;;;;18.98;12.85;;;0.70;75.90;;;;;;6094768;23;92364;-72
2021/12/27 00:57:13;;;;;;;18.83;13.07;;;0.70;76.30;;;;;;6117453;23;92460;-72
2021/12/27 00:59:41;;;;;;;18.80;12.40;;;0.80;76.30;;;;;;6092439;23;94261;-72
2021/12/27 01:02:07;;;;;;;21.73;14.50;;;0.80;75.90;;;;;;6093959;23;92868;-72
2021/12/27 01:04:35;;;;;;;22.75;14.15;;;0.80;75.60;;;;;;6117976;23;91681;-73
2021/12/27 01:07:02;;;;;;;21.98;14.77;;;0.80;75.50;;;;;;6117291;23;92399;-72
2021/12/27 01:15:09;;;;;;;19.45;14.05;;;0.80;75.60;;;;;;6094584;23;92364;-72
2021/12/27 01:17:42;;;;;;;19.88;13.10;;;0.90;75.60;;;;;;6094594;23;92769;-72
2021/12/27 01:20:14;;;;;;;20.95;13.77;;;0.90;76.60;;;;;;6094076;23;93959;-72
2021/12/27 01:22:41;;;;;;;20.02;13.95;;;0.90;75.80;;;;;;6094356;23;92828;-72
2021/12/27 01:25:12;;;;;;;21.48;14.63;;;0.90;75.60;;;;;;6093835;23;98424;-72
2021/12/27 01:27:41;;;;;;;20.95;14.85;;;0.90;75.50;;;;;;6068365;23;92791;-72
2021/12/27 01:30:11;;;;;;;22.23;14.85;;;1.00;75.70;;;;;;6094194;23;98071;-72
2021/12/27 01:32:46;;;;;;;21.98;14.27;;;1.00;75.70;;;;;;6094458;23;92584;-72
2021/12/27 01:35:16;;;;;;;22.17;14.63;;;1.00;75.50;;;;;;6093981;23;93779;-72
2021/12/27 01:37:43;;;;;;;22.30;14.90;;;1.00;75.60;;;;;;6090662;23;94884;-72
2021/12/27 01:40:12;;;;;;;19.65;14.80;;;1.00;75.40;;;;;;6093919;23;93117;-72
2021/12/27 01:43:01;;;;;;;24.17;15.75;;;1.10;75.40;;;;;;6093739;23;92628;-72
2021/12/27 01:45:28;;;;;;;22.95;14.30;;;1.00;75.20;;;;;;6094085;23;92465;-72
2021/12/27 01:47:55;;;;;;;20.55;14.48;;;1.00;75.50;;;;;;6093035;23;93087;-72
2021/12/27 01:50:22;;;;;;;20.48;14.40;;;1.00;75.60;;;;;;6093867;23;93049;-72
2021/12/27 01:52:49;;;;;;;19.00;13.77;;;1.00;75.70;;;;;;6094399;23;92919;-72
2021/12/27 01:55:16;;;;;;;17.25;12.77;;;1.10;75.70;;;;;;6094725;23;91684;-72
2021/12/27 01:57:43;;;;;;;21.27;14.50;;;1.00;75.80;;;;;;6117619;23;92882;-72
2021/12/27 02:00:11;;;;;;;21.50;14.05;;;1.00;75.90;;;;;;6094117;23;96294;-68
2021/12/27 02:02:44;;;;;;;22.52;14.88;;;1.10;75.90;;;;;;6092861;23;94809;-68
2021/12/27 02:05:13;;;;;;;21.23;14.70;;;1.10;75.90;;;;;;6094271;23;92331;-68
2021/12/27 02:07:40;;;;;;;23.40;15.45;;;1.10;76.00;;;;;;6094334;23;92407;-68
2021/12/27 02:10:09;;;;;;;24.80;15.05;;;1.10;75.90;;;;;;6094186;23;92907;-68
2021/12/27 02:12:36;;;;;;;20.60;15.32;;;1.10;75.80;;;;;;6093432;23;106002;-69
2021/12/27 02:15:07;;;;;;;22.25;14.73;;;1.10;75.70;;;;;;6095031;23;92316;-68
2021/12/27 02:17:36;;;;;;;21.05;14.30;;;1.20;75.80;;;;;;6095295;23;92933;-69
2021/12/27 02:20:27;;;;;;;22.75;15.32;;;1.20;76.10;;;;;;6095601;23;94437;-68
2021/12/27 02:22:59;;;;;;;21.88;13.93;;;1.20;76.00;;;;;;6095135;23;92381;-68
2021/12/27 02:25:29;;;;;;;21.55;15.10;;;1.20;75.70;;;;;;6118329;23;92499;-68
2021/12/27 02:27:57;;;;;;;21.50;15.10;;;1.20;76.50;;;;;;6092404;23;94835;-68
2021/12/27 02:30:24;;;;;;;24.85;14.68;;;1.20;76.50;;;;;;6093038;23;94283;-68
2021/12/27 02:32:57;;;;;;;22.80;14.82;;;1.20;76.10;;;;;;6118171;23;93067;-68
2021/12/27 02:35:30;;;;;;;19.98;12.35;;;1.20;76.10;;;;;;6094770;23;95857;-68
2021/12/27 02:37:59;;;;;;;20.40;14.77;;;1.20;76.20;;;;;;6118391;23;92472;-69
2021/12/27 02:40:28;;;;;;;20.33;14.65;;;1.30;76.20;;;;;;6094720;23;95047;-68
2021/12/27 02:43:03;;;;;;;20.25;14.02;;;1.30;76.10;;;;;;6068824;23;92813;-68
2021/12/27 02:45:32;;;;;;;23.23;14.23;;;1.30;76.80;;;;;;6069419;23;91756;-68
2021/12/27 02:48:00;;;;;;;27.05;16.48;;;1.30;76.50;;;;;;6069603;23;93126;-69
2021/12/27 02:50:28;;;;;;;21.60;15.35;;;1.40;76.80;;;;;;6094778;23;92988;-68
2021/12/27 02:52:55;;;;;;;24.00;15.15;;;1.40;78.00;;;;;;6093908;23;94767;-68
2021/12/27 02:55:23;;;;;;;24.55;15.65;;;1.30;79.10;;;;;;6068498;23;92439;-68
2021/12/27 02:57:51;;;;;;;24.00;16.33;;;1.30;79.50;;;;;;6095182;23;92334;-68
2021/12/27 03:00:48;;;;;;;19.50;13.32;;;1.30;79.20;;;;;;6068701;23;94263;-68
2021/12/27 03:03:16;;;;;;;25.40;16.58;;;1.30;78.70;;;;;;6095009;23;92880;-69
2021/12/27 03:05:45;;;;;;;25.50;17.27;;;1.40;78.90;;;;;;6094805;23;92366;-68
2021/12/27 03:08:15;;;;;;;26.50;16.08;;;1.40;78.50;;;;;;6095081;23;92423;-68
2021/12/27 03:10:46;;;;;;;24.58;15.32;;;1.40;78.50;;;;;;6069102;23;95276;-68
2021/12/27 03:13:28;;;;;;;23.00;16.08;;;1.40;78.10;;;;;;6095026;23;92416;-68
2021/12/27 03:16:07;;;;;;;26.67;16.23;;;1.50;78.20;;;;;;6095159;23;92362;-68
2021/12/27 03:18:36;;;;;;;23.65;16.60;;;1.40;78.10;;;;;;6093319;23;94860;-68
2021/12/27 03:21:04;;;;;;;24.20;17.25;;;1.40;78.00;;;;;;6094561;23;94467;-68
2021/12/27 03:23:32;;;;;;;26.48;16.55;;;1.50;77.90;;;;;;6094073;23;92864;-68
2021/12/27 03:25:59;;;;;;;22.35;15.95;;;1.50;77.80;;;;;;6095116;23;92429;-68
2021/12/27 03:28:27;;;;;;;24.17;16.52;;;1.50;77.70;;;;;;6094211;23;101569;-69
2021/12/27 03:30:57;;;;;;;18.00;13.05;;;1.50;77.50;;;;;;6068427;23;94269;-68
2021/12/27 03:33:25;;;;;;;23.40;15.73;;;1.40;77.50;;;;;;6094916;23;92836;-68
2021/12/27 03:36:04;;;;;;;25.75;17.48;;;1.50;77.50;;;;;;6095342;23;91647;-68
2021/12/27 03:38:43;;;;;;;25.17;15.27;;;1.50;77.60;;;;;;6094658;23;92428;-68
2021/12/27 03:41:13;;;;;;;22.80;16.10;;;1.50;77.40;;;;;;6093182;23;94381;-69
2021/12/27 03:43:42;;;;;;;26.13;16.23;;;1.50;77.50;;;;;;6066488;23;95646;-68
2021/12/27 03:46:09;;;;;;;24.23;16.77;;;1.50;78.00;;;;;;6117874;23;92511;-68
2021/12/27 03:48:36;;;;;;;22.38;15.25;;;1.50;77.70;;;;;;6094688;23;92405;-68
2021/12/27 03:51:03;;;;;;;22.75;15.85;;;1.50;77.80;;;;;;6094858;23;93257;-68
2021/12/27 03:53:30;;;;;;;23.15;15.18;;;1.50;78.60;;;;;;6094772;23;92788;-68
2021/12/27 03:55:57;;;;;;;19.73;13.57;;;1.50;78.10;;;;;;6118439;23;92454;-68
2021/12/27 03:58:29;;;;;;;23.50;16.63;;;1.60;78.10;;;;;;6094997;23;92401;-68
2021/12/27 04:01:13;;;;;;;22.25;15.88;;;1.60;78.10;;;;;;6095695;23;92887;-68
2021/12/27 04:03:41;;;;;;;15.20;11.23;;;1.60;78.10;;;;;;6092830;23;98009;-68
2021/12/27 04:06:08;;;;;;;18.45;12.93;;;1.60;78.20;;;;;;6094472;23;92942;-68
2021/12/27 04:08:35;;;;;;;22.52;15.85;;;1.60;78.00;;;;;;6093419;23;94791;-68
2021/12/27 04:11:02;;;;;;;21.08;15.40;;;1.60;78.00;;;;;;6094709;23;92849;-68
2021/12/27 04:13:29;;;;;;;22.95;16.48;;;1.70;78.40;;;;;;6095029;23;92843;-68
2021/12/27 04:15:57;;;;;;;23.77;16.30;;;1.70;78.20;;;;;;6118624;23;93018;-68
2021/12/27 04:18:24;;;;;;;22.17;15.90;;;1.70;78.10;;;;;;6117859;23;92456;-68
2021/12/27 04:20:51;;;;;;;24.15;15.68;;;1.70;77.80;;;;;;6094373;23;92971;-68
2021/12/27 04:23:18;;;;;;;23.77;16.40;;;1.70;77.60;;;;;;6094796;23;92939;-68
2021/12/27 04:25:45;;;;;;;24.40;16.45;;;1.80;77.50;;;;;;6092991;23;92085;-68
2021/12/27 04:28:13;;;;;;;23.88;15.32;;;1.80;77.60;;;;;;6094892;23;92461;-68
2021/12/27 04:30:40;;;;;;;27.98;16.90;;;1.80;77.90;;;;;;6094361;23;92996;-68
2021/12/27 04:33:07;;;;;;;24.65;16.33;;;1.80;77.70;;;;;;6067060;23;95299;-68
2021/12/27 04:35:34;;;;;;;25.80;16.80;;;1.80;77.50;;;;;;6093112;23;92385;-72
2021/12/27 04:38:02;;;;;;;23.65;16.23;;;1.80;77.50;;;;;;6094450;23;92390;-72
2021/12/27 04:40:32;;;;;;;24.90;16.77;;;1.90;77.70;;;;;;6094906;23;93108;-68
2021/12/27 04:43:07;;;;;;;24.35;16.13;;;1.90;77.60;;;;;;6093863;23;93437;-68
2021/12/27 04:45:35;;;;;;;24.23;16.58;;;1.90;77.40;;;;;;6117971;23;92453;-68
2021/12/27 04:48:02;;;;;;;25.95;17.17;;;1.90;77.60;;;;;;6094149;23;103280;-68
2021/12/27 04:50:30;;;;;;;25.60;17.13;;;1.90;77.50;;;;;;6095014;23;92313;-68
2021/12/27 04:52:57;;;;;;;22.48;15.48;;;1.90;77.30;;;;;;6067551;23;97114;-68
2021/12/27 04:55:25;;;;;;;23.30;15.90;;;1.90;77.10;;;;;;6092758;23;92705;-68
2021/12/27 04:57:53;;;;;;;18.00;12.70;;;1.80;77.60;;;;;;6092753;23;95027;-68
2021/12/27 05:00:20;;;;;;;23.38;15.75;;;1.80;77.70;;;;;;6068395;23;92969;-68
2021/12/27 05:02:47;;;;;;;23.25;15.35;;;1.80;78.20;;;;;;6093970;23;92828;-68
2021/12/27 05:05:14;;;;;;;24.83;15.77;;;1.80;78.10;;;;;;6094436;23;92272;-68
2021/12/27 05:07:42;;;;;;;25.17;14.05;;;1.80;78.70;;;;;;6094217;23;92391;-68
2021/12/27 05:10:09;;;;;;;23.35;15.30;;;1.80;79.20;;;;;;6094303;23;92945;-68
2021/12/27 05:12:36;;;;;;;22.13;14.80;;;1.80;79.50;;;;;;6117212;23;93037;-68
2021/12/27 05:15:04;;;;;;;22.98;14.60;;;1.80;79.00;;;;;;6092637;23;91706;-68
2021/12/27 05:17:31;;;;;;;27.50;17.83;;;1.80;78.70;;;;;;6068383;23;96317;-68
2021/12/27 05:19:59;;;;;;;22.38;14.07;;;1.80;78.70;;;;;;6094108;23;93066;-68
2021/12/27 05:22:26;;;;;;;26.63;17.38;;;1.80;79.30;;;;;;6091120;23;94958;-68
2021/12/27 05:24:53;;;;;;;22.67;15.32;;;1.80;78.80;;;;;;6094422;23;92526;-68
2021/12/27 05:27:20;;;;;;;23.75;15.02;;;1.70;79.70;;;;;;6094782;23;92484;-68
2021/12/27 05:30:04;;;;;;;24.63;17.33;;;1.80;79.40;;;;;;6117506;23;94181;-72
2021/12/27 05:32:31;;;;;;;24.85;16.45;;;1.80;79.50;;;;;;6094611;23;92743;-72
2021/12/27 05:34:58;;;;;;;29.23;18.42;;;1.80;79.00;;;;;;6092663;23;93788;-72
2021/12/27 05:37:25;;;;;;;23.40;15.88;;;1.80;79.20;;;;;;6117824;23;92474;-72
2021/12/27 05:39:52;;;;;;;25.48;16.42;;;1.80;79.10;;;;;;6094407;23;92729;-72
2021/12/27 05:42:20;;;;;;;19.52;14.60;;;1.80;79.10;;;;;;6116854;23;92493;-72
2021/12/27 05:44:47;;;;;;;24.42;16.27;;;1.80;79.50;;;;;;6094342;23;92503;-72
2021/12/27 05:47:14;;;;;;;25.27;16.73;;;1.80;79.60;;;;;;6091396;23;94901;-72
2021/12/27 05:49:41;;;;;;;23.05;14.80;;;1.80;79.60;;;;;;6067175;23;97917;-72
2021/12/27 05:52:09;;;;;;;24.13;16.65;;;1.80;79.50;;;;;;6093823;23;92835;-72
2021/12/27 05:54:36;;;;;;;26.80;19.17;;;1.80;79.60;;;;;;6094378;23;92759;-72
2021/12/27 05:57:04;;;;;;;24.92;17.40;;;1.80;79.40;;;;;;6093138;23;104817;-72
2021/12/27 05:59:30;;;;;;;24.58;16.65;;;1.80;79.60;;;;;;6093888;23;92954;-72
2021/12/27 06:01:57;;;;;;;23.65;16.25;;;1.80;79.70;;;;;;6091596;23;93923;-72
2021/12/27 06:04:24;;;;;;;25.73;16.80;;;1.80;79.50;;;;;;6094420;23;92039;-72
2021/12/27 06:06:51;;;;;;;22.63;16.85;;;1.90;79.90;;;;;;6093636;23;92404;-72
2021/12/27 06:09:18;;;;;;;24.20;15.68;;;1.80;79.50;;;;;;6116949;23;93005;-72
2021/12/27 06:11:45;;;;;;;24.55;16.33;;;1.80;79.70;;;;;;6092641;23;94773;-72
2021/12/27 06:14:12;;;;;;;22.38;16.02;;;1.90;80.00;;;;;;6067408;23;92482;-72
2021/12/27 06:16:40;;;;;;;23.00;15.32;;;1.90;79.70;;;;;;6094091;23;92454;-72
2021/12/27 06:19:07;;;;;;;23.35;15.93;;;1.90;80.30;;;;;;6093434;23;93077;-72
2021/12/27 06:21:33;;;;;;;25.30;16.73;;;1.90;80.10;;;;;;6093725;23;92633;-72
2021/12/27 06:24:01;;;;;;;24.60;16.92;;;2.00;79.80;;;;;;6093882;23;92443;-73
2021/12/27 06:26:27;;;;;;;28.33;16.73;;;2.00;79.70;;;;;;6092456;23;92389;-74
2021/12/27 06:28:54;;;;;;;26.05;17.88;;;2.00;79.80;;;;;;6094232;23;92225;-73
2021/12/27 06:31:22;;;;;;;25.35;17.35;;;2.00;79.70;;;;;;6067519;23;93440;-73
2021/12/27 06:33:49;;;;;;;23.30;15.93;;;2.10;79.60;;;;;;6094021;23;92377;-73
2021/12/27 06:36:17;;;;;;;25.42;15.80;;;2.00;80.00;;;;;;6065485;23;107197;-73
2021/12/27 06:38:43;;;;;;;30.27;18.40;;;2.00;79.50;;;;;;6116617;23;93057;-73
2021/12/27 06:41:11;;;;;;;24.38;17.45;;;2.10;79.40;;;;;;6093299;23;92329;-72
2021/12/27 06:43:38;;;;;;;25.73;18.50;;;2.10;79.40;;;;;;6091801;23;92466;-72
2021/12/27 06:46:04;;;;;;;25.60;17.63;;;2.20;79.30;;;;;;6093550;23;92448;-72
2021/12/27 06:48:32;;;;;;;25.45;18.58;;;2.20;79.10;;;;;;6093744;23;92834;-72
2021/12/27 06:50:58;;;;;;;23.02;17.30;;;2.10;79.10;;;;;;6093663;23;94747;-72
2021/12/27 06:53:30;;;;;;;25.20;17.98;;;2.10;79.50;;;;;;6094500;23;91720;-72
2021/12/27 06:55:58;;;;;;;27.40;17.95;;;2.10;79.50;;;;;;6093528;23;92304;-72
2021/12/27 06:58:25;;;;;;;23.08;16.95;;;2.10;79.40;;;;;;6116594;23;93259;-72
2021/12/27 07:00:52;;;;;;;24.88;15.35;;;2.10;79.40;;;;;;6090977;23;97267;-73
2021/12/27 07:03:19;;;;;;;25.60;16.27;;;2.10;79.70;;;;;;6117718;23;92394;-72
2021/12/27 07:05:48;;;;;;;23.35;16.15;;;2.10;79.90;;;;;;6094746;23;98279;-72
2021/12/27 07:08:18;;;;;;;27.60;15.95;;;2.10;79.80;;;;;;6094710;23;93055;-72
2021/12/27 07:10:45;;;;;;;26.48;16.55;;;2.10;80.00;;;;;;6095120;23;92927;-72
2021/12/27 07:13:12;;;;;;;21.83;14.98;;;2.10;79.70;;;;;;6095019;23;92300;-72
2021/12/27 07:15:41;;;;;;;22.73;15.82;;;2.10;79.80;;;;;;6068076;23;106661;-72
2021/12/27 07:18:09;;;;;;;24.30;16.77;;;2.20;80.20;;;;;;6118474;23;93525;-72
2021/12/27 07:20:36;;;;;;;23.40;13.98;;;2.10;80.40;;;;;;6095053;23;92455;-73
2021/12/27 07:23:05;;;;;;;23.92;14.85;;;2.10;80.40;;;;;;6118160;23;92420;-69
2021/12/27 07:25:33;;;;;;;28.33;17.15;;;2.10;80.30;;;;;;6093576;23;94890;-69
2021/12/27 07:28:00;;;;;;;20.88;13.82;;;2.20;80.90;;;;;;6068739;23;92999;-69
2021/12/27 07:30:29;;;;;;;22.23;13.07;;;2.20;80.10;;;;;;6118114;23;92919;-72
2021/12/27 07:32:56;;;;;;;27.65;16.65;;;2.20;80.20;;;;;;6095039;23;92350;-73
2021/12/27 07:35:25;;;;;;;28.80;18.30;;;2.30;80.10;;;;;;6094625;23;95379;-72
2021/12/27 07:37:52;;;;;;;25.08;16.85;;;2.30;80.00;;;;;;6093434;23;93041;-72
2021/12/27 07:40:22;;;;;;;25.70;18.00;;;2.20;80.10;;;;;;6094307;23;94963;-72
2021/12/27 07:42:49;;;;;;;27.25;16.30;;;2.30;80.10;;;;;;6094590;23;91697;-72
2021/12/27 07:45:16;;;;;;;27.52;18.92;;;2.30;80.30;;;;;;6094854;23;93137;-72
2021/12/27 07:47:43;;;;;;;28.58;18.70;;;2.30;80.50;;;;;;6094568;23;94068;-72
2021/12/27 07:50:10;;;;;;;26.23;17.17;;;2.30;80.10;;;;;;6092876;23;94750;-72
2021/12/27 07:52:38;;;;;;;30.13;18.38;;;2.40;80.10;;;;;;6095151;23;93365;-72
2021/12/27 07:55:05;;;;;;;29.85;17.55;;;2.40;80.20;;;;;;6094870;23;92701;-72
2021/12/27 07:57:32;;;;;;;29.85;17.92;;;2.40;80.10;;;;;;6094809;23;93024;-72
2021/12/27 08:00:06;;;;;;;26.08;16.85;;;2.50;80.10;;;;;;6117614;23;92784;-72
2021/12/27 08:02:36;;;;;;;30.33;18.35;;;2.50;80.10;;;;;;6093750;23;92416;-72
2021/12/27 08:05:04;;;;;;;27.00;17.45;;;2.50;80.60;;;;;;6094993;23;92371;-72
2021/12/27 08:07:32;;;;;;;28.85;17.77;;;2.50;80.00;;;;;;6068831;23;93297;-72
2021/12/27 08:09:58;;;;;;;29.58;17.98;;;2.50;80.20;;;;;;6094727;23;92765;-72
2021/12/27 08:12:26;;;;;;;27.40;17.58;;;2.50;80.10;;;;;;6117019;23;92459;-72
2021/12/27 08:14:52;;;;;;;27.90;17.65;;;2.60;80.30;;;;;;6093366;23;94876;-72
2021/12/27 08:17:19;;;;;;;30.30;16.38;;;2.60;80.10;;;;;;6092497;23;101458;-73
2021/12/27 08:19:47;;;;;;;30.58;18.60;;;2.60;81.00;;;;;;6094199;23;92906;-73
2021/12/27 08:22:14;;;;;;;27.00;16.85;;;2.60;80.90;;;;;;6067893;23;92391;-74
2021/12/27 08:24:43;;;;;;;31.13;19.27;;;2.60;80.70;;;;;;6093336;23;92896;-72
2021/12/27 08:27:10;;;;;;;30.10;18.55;;;2.60;80.60;;;;;;6094367;23;92996;-73
2021/12/27 08:29:37;;;;;;;29.90;17.85;;;2.60;80.70;;;;;;6094541;23;92799;-72
2021/12/27 08:32:05;;;;;;;30.02;17.98;;;2.70;80.80;;;;;;6095263;23;91587;-73
2021/12/27 08:34:32;;;;;;;35.55;19.70;;;2.70;81.50;;;;;;6094505;23;92360;-74
2021/12/27 08:37:00;;;;;;;30.90;18.17;;;2.70;81.10;;;;;;6117250;23;97653;-72
2021/12/27 08:39:27;;;;;;;31.38;17.92;;;2.70;81.40;;;;;;6092589;23;94883;-72
2021/12/27 08:41:54;;;;;;;32.70;18.05;;;2.70;82.20;;;;;;6117506;23;92770;-72
2021/12/27 08:44:21;;;;;;;34.97;18.63;;;2.80;81.60;;;;;;6094061;23;92298;-73
2021/12/27 08:46:48;;;;;;;36.58;20.38;;;2.80;81.30;;;;;;6094257;23;92997;-73
2021/12/27 08:49:15;;;;;;;31.83;18.05;;;2.80;81.40;;;;;;6117277;23;94131;-73
2021/12/27 08:51:42;;;;;;;33.45;17.98;;;2.70;81.80;;;;;;6094699;23;92424;-74
2021/12/27 08:54:10;;;;;;;34.03;20.08;;;2.80;82.10;;;;;;6094551;23;92420;-73
2021/12/27 08:56:38;;;;;;;29.95;17.95;;;2.80;81.90;;;;;;6117863;23;92660;-73
2021/12/27 08:59:05;;;;;;;33.03;18.27;;;2.80;81.80;;;;;;6092319;23;93526;-73
2021/12/27 09:01:32;;;;;;;30.40;18.20;;;2.80;81.60;;;;;;6117251;23;92490;-73
2021/12/27 09:03:59;;;;;;;37.40;18.63;;;2.90;81.80;;;;;;6093273;23;94775;-73
2021/12/27 09:06:26;;;;;;;30.40;15.55;;;2.90;81.90;;;;;;6067966;23;98040;-73
2021/12/27 09:08:53;;;;;;;32.47;18.70;;;2.90;81.60;;;;;;6117481;23;93952;-73
2021/12/27 09:11:20;;;;;;;37.15;19.60;;;3.00;82.20;;;;;;6117300;23;92381;-74
2021/12/27 09:13:47;;;;;;;36.05;20.58;;;3.00;81.80;;;;;;6094459;23;92402;-73
2021/12/27 09:16:33;;;;;;;37.65;18.85;;;3.00;81.60;;;;;;6113295;23;96345;-73
2021/12/27 09:19:03;;;;;;;30.00;17.35;;;3.10;81.60;;;;;;6094320;23;92817;-73
2021/12/27 09:21:30;;;;;;;43.30;28.33;;;3.10;81.50;;;;;;6094400;23;91683;-73
2021/12/27 09:23:57;;;;;;;39.28;22.05;;;3.10;81.40;;;;;;6117375;23;92960;-73
2021/12/27 09:26:24;;;;;;;38.30;21.17;;;3.10;82.10;;;;;;6093490;23;93184;-74
2021/12/27 09:28:51;;;;;;;36.17;22.63;;;3.10;81.70;;;;;;6115765;23;94831;-73
2021/12/27 09:31:18;;;;;;;42.10;25.10;;;3.10;81.70;;;;;;6116968;23;92483;-73
2021/12/27 09:33:45;;;;;;;40.10;21.88;;;3.20;82.00;;;;;;6092699;23;92674;-73
2021/12/27 09:36:13;;;;;;;38.15;22.60;;;3.20;82.40;;;;;;6116780;23;93995;-75
2021/12/27 09:38:40;;;;;;;46.80;30.52;;;3.20;82.20;;;;;;6093612;23;92850;-73
2021/12/27 09:41:07;;;;;;;41.28;22.08;;;3.20;82.70;;;;;;6092701;23;93106;-74
2021/12/27 09:43:36;;;;;;;41.78;22.27;;;3.20;82.40;;;;;;6093450;23;92410;-74
2021/12/27 09:46:03;;;;;;;39.78;21.42;;;3.30;82.30;;;;;;6117151;23;92348;-74
2021/12/27 09:48:31;;;;;;;44.00;20.92;;;3.30;82.00;;;;;;6093569;23;92451;-73
2021/12/27 09:50:58;;;;;;;35.00;16.63;;;3.40;82.30;;;;;;6094217;23;92446;-73
2021/12/27 09:53:25;;;;;;;40.10;21.25;;;3.40;82.30;;;;;;6092861;23;94861;-74
2021/12/27 09:56:08;;;;;;;39.40;20.02;;;3.40;82.10;;;;;;6114938;23;92974;-74
2021/12/27 09:58:36;;;;;;;43.75;22.05;;;3.50;82.60;;;;;;6067989;23;93076;-74
2021/12/27 10:01:05;;;;;;;41.35;21.05;;;3.50;82.00;;;;;;6094156;23;92343;-73
2021/12/27 10:03:56;;;;;;;34.40;18.42;;;3.50;82.10;;;;;;6093897;23;92680;-73
2021/12/27 10:06:24;;;;;;;40.03;20.85;;;3.60;82.00;;;;;;6093826;23;93056;-74
2021/12/27 10:08:54;;;;;;;42.08;21.70;;;3.60;82.10;;;;;;6093740;23;94789;-74
2021/12/27 10:11:34;;;;;;;38.92;20.02;;;3.50;82.60;;;;;;6094171;23;91761;-74
2021/12/27 10:14:06;;;;;;;48.17;22.88;;;3.50;83.10;;;;;;6094167;23;92356;-70
2021/12/27 10:16:37;;;;;;;45.92;23.02;;;3.60;83.10;;;;;;6093600;23;93172;-70
2021/12/27 10:19:08;;;;;;;48.03;23.27;;;3.70;82.60;;;;;;6091030;23;95396;-70
2021/12/27 10:21:41;;;;;;;49.55;23.40;;;3.70;82.30;;;;;;6116031;23;92508;-70
2021/12/27 10:24:15;;;;;;;41.33;21.25;;;3.80;82.30;;;;;;6094095;23;92347;-72
2021/12/27 10:26:44;;;;;;;51.22;24.08;;;3.70;83.10;;;;;;6093947;23;92861;-73
2021/12/27 10:29:17;;;;;;;48.03;24.23;;;3.70;84.40;;;;;;6093523;23;103814;-70
2021/12/27 10:32:04;;;;;;;53.30;24.08;;;3.70;84.20;;;;;;6093689;23;92371;-69
2021/12/27 10:34:36;;;;;;;43.33;21.52;;;3.80;83.60;;;;;;6093762;23;92378;-69
2021/12/27 10:37:43;;;;;;;49.15;22.83;;;3.80;83.50;;;;;;6095541;23;91709;-69
2021/12/27 10:40:12;;;;;;;47.72;22.80;;;3.90;83.00;;;;;;6033299;23;92497;-69
2021/12/27 10:42:45;;;;;;;55.95;23.75;;;3.90;83.00;;;;;;6033083;23;92554;-70
2021/12/27 10:45:20;;;;;;;58.72;24.67;;;3.90;83.00;;;;;;6067668;23;94835;-70
2021/12/27 10:47:52;;;;;;;62.70;25.08;;;4.00;82.80;;;;;;6094914;23;92301;-69
2021/12/27 10:50:24;;;;;;;53.55;22.05;;;4.00;82.70;;;;;;6094923;23;92775;-69
2021/12/27 10:52:55;;;;;;;55.95;24.52;;;4.00;82.70;;;;;;6095077;23;92405;-69
2021/12/27 10:55:30;;;;;;;49.38;22.20;;;4.00;83.20;;;;;;6095447;23;92400;-69
2021/12/27 10:58:18;;;;;;;63.20;25.70;;;4.00;83.30;;;;;;6094794;23;93056;-70
2021/12/27 11:00:53;;;;;;;49.88;22.73;;;4.00;83.60;;;;;;6094403;23;92824;-70
2021/12/27 11:03:28;;;;;;;68.05;25.92;;;4.00;84.00;;;;;;6118523;23;91696;-70
2021/12/27 11:05:57;;;;;;;62.47;25.88;;;4.10;83.60;;;;;;6094945;23;92429;-70
2021/12/27 11:08:27;;;;;;;64.70;27.42;;;4.10;83.40;;;;;;6094614;23;93086;-69
2021/12/27 11:10:54;;;;;;;54.80;24.85;;;4.20;83.10;;;;;;6115466;23;94818;-70
2021/12/27 11:13:21;;;;;;;59.38;24.17;;;4.20;82.90;;;;;;6094939;23;92972;-70
2021/12/27 11:15:48;;;;;;;67.30;26.67;;;4.20;83.10;;;;;;6094487;23;92397;-70
2021/12/27 11:18:16;;;;;;;45.75;19.73;;;4.20;83.00;;;;;;6094593;23;93404;-70
2021/12/27 11:20:46;;;;;;;57.38;22.25;;;4.20;83.20;;;;;;6093875;23;92390;-70
2021/12/27 11:23:14;;;;;;;63.38;26.30;;;4.10;83.60;;;;;;6094651;23;92380;-70
2021/12/27 11:25:44;;;;;;;62.78;25.10;;;4.10;84.20;;;;;;6094407;23;92345;-70
2021/12/27 11:28:44;;;;;;;62.42;26.00;;;4.00;84.40;;;;;;6094953;23;92323;-70
2021/12/27 11:31:15;;;;;;;66.15;27.02;;;4.00;84.40;;;;;;6061060;23;92414;-70
2021/12/27 11:33:57;;;;;;;57.30;25.02;;;4.00;84.80;;;;;;6094357;23;92765;-69
2021/12/27 11:36:30;;;;;;;69.75;27.45;;;4.00;84.30;;;;;;6115898;23;94855;-70
2021/12/27 11:39:18;;;;;;;57.85;24.52;;;4.00;84.10;;;;;;6094119;23;93059;-69
2021/12/27 11:41:56;;;;;;;68.90;26.38;;;4.10;84.30;;;;;;6083514;23;92758;-70
2021/12/27 11:44:58;;;;;;;65.85;25.48;;;4.10;84.30;;;;;;6094170;23;92408;-69
2021/12/27 11:47:29;;;;;;;77.93;31.30;;;4.10;84.10;;;;;;6083875;23;92617;-69
2021/12/27 11:50:07;;;;;;;68.80;26.10;;;4.10;84.10;;;;;;6094130;23;92917;-69
2021/12/27 11:52:38;;;;;;;75.05;27.25;;;4.20;84.40;;;;;;6095202;23;92935;-69
2021/12/27 11:55:07;;;;;;;78.93;27.17;;;4.20;84.40;;;;;;6118512;23;91613;-75
2021/12/27 11:57:47;;;;;;;104.28;34.47;;;4.10;84.90;;;;;;6094911;23;92889;-74
2021/12/27 12:00:18;;;;;;;100.97;44.50;;;4.10;86.20;;;;;;6094603;23;92906;-74
2021/12/27 12:02:51;;;;;;;83.25;36.53;;;4.10;86.10;;;;;;6093220;23;94917;-75
2021/12/27 12:05:42;;;;;;;117.03;40.03;;;4.00;86.20;;;;;;6094996;23;92341;-75
2021/12/27 12:08:35;;;;;;;115.50;37.13;;;4.10;86.50;;;;;;6094794;23;92593;-75
2021/12/27 12:11:06;;;;;;;90.18;32.78;;;4.10;86.30;;;;;;6094166;23;96475;-75
2021/12/27 12:13:49;;;;;;;93.70;32.65;;;4.00;86.80;;;;;;6094553;23;93009;-75
2021/12/27 12:16:23;;;;;;;102.05;35.47;;;4.10;86.70;;;;;;6068545;23;92342;-75
2021/12/27 12:18:52;;;;;;;78.60;32.45;;;4.10;87.00;;;;;;6094448;23;92293;-75
2021/12/27 12:22:01;;;;;;;113.53;33.03;;;4.10;86.70;;;;;;6094756;23;92247;-75
2021/12/27 12:24:28;;;;;;;89.10;30.67;;;4.10;86.30;;;;;;6051614;23;94798;-74
2021/12/27 12:26:56;;;;;;;98.32;29.77;;;4.20;86.30;;;;;;6117213;23;92444;-75
2021/12/27 12:29:35;;;;;;;96.78;30.88;;;4.20;85.60;;;;;;6093362;23;95327;-75
2021/12/27 12:32:04;;;;;;;91.55;29.90;;;4.30;85.10;;;;;;6094315;23;92919;-75
2021/12/27 12:34:32;;;;;;;110.35;32.80;;;4.40;84.90;;;;;;6068507;23;92819;-75
2021/12/27 12:37:03;;;;;;;92.88;31.38;;;4.30;84.70;;;;;;6094247;23;92460;-75
2021/12/27 12:39:35;;;;;;;94.43;30.17;;;4.30;85.00;;;;;;6094604;23;92417;-75
2021/12/27 12:42:12;;;;;;;95.97;31.48;;;4.40;85.00;;;;;;6116723;23;93045;-75
2021/12/27 12:44:46;;;;;;;92.95;30.67;;;4.40;84.80;;;;;;6094442;23;92889;-75
2021/12/27 12:47:14;;;;;;;102.05;35.08;;;4.40;84.90;;;;;;6095068;23;92085;-75
2021/12/27 12:49:41;;;;;;;107.57;32.53;;;4.40;84.80;;;;;;6094552;23;92824;-75
2021/12/27 12:52:08;;;;;;;96.75;31.95;;;4.40;84.60;;;;;;6067749;23;95656;-75
2021/12/27 12:54:38;;;;;;;92.47;28.35;;;4.40;84.80;;;;;;6093488;23;95269;-75